sensor_id;sensor_type;location;lat;lon;timestamp;temperature;humidity
4505;DHT22;2265;48.794;9.520;2023-07-13T00:01:47;21.30;98.00
4505;DHT22;2265;48.794;9.520;2023-07-13T00:04:16;21.20;98.00
4505;DHT22;2265;48.794;9.520;2023-07-13T00:06:45;21.00;98.00
4505;DHT22;2265;48.794;9.520;2023-07-13T00:09:13;21.10;98.00
4505;DHT22;2265;48.794;9.520;2023-07-13T00:11:41;21.20;98.00
4505;DHT22;2265;48.794;9.520;2023-07-13T00:14:10;21.20;98.00
4505;DHT22;2265;48.794;9.520;2023-07-13T00:16:39;21.10;98.00
4505;DHT22;2265;48.794;9.520;2023-07-13T00:19:09;21.00;98.00
4505;DHT22;2265;48.794;9.520;2023-07-13T00:21:40;20.90;98.00
4505;DHT22;2265;48.794;9.520;2023-07-13T00:24:07;20.90;98.00
4505;DHT22;2265;48.794;9.520;2023-07-13T00:26:34;20.90;98.00
4505;DHT22;2265;48.794;9.520;2023-07-13T00:29:02;20.80;98.00
4505;DHT22;2265;48.794;9.520;2023-07-13T00:31:32;20.80;98.00
4505;DHT22;2265;48.794;9.520;2023-07-13T00:33:59;20.90;98.00
4505;DHT22;2265;48.794;9.520;2023-07-13T00:36:26;21.10;98.00
4505;DHT22;2265;48.794;9.520;2023-07-13T00:38:53;21.10;98.00
4505;DHT22;2265;48.794;9.520;2023-07-13T00:41:20;21.10;98.00
4505;DHT22;2265;48.794;9.520;2023-07-13T00:43:48;21.10;98.00
4505;DHT22;2265;48.794;9.520;2023-07-13T00:46:22;21.10;98.00
4505;DHT22;2265;48.794;9.520;2023-07-13T00:48:51;21.20;98.00
4505;DHT22;2265;48.794;9.520;2023-07-13T00:51:24;21.30;98.00
4505;DHT22;2265;48.794;9.520;2023-07-13T00:53:54;21.40;98.00
4505;DHT22;2265;48.794;9.520;2023-07-13T00:56:22;21.50;98.00
4505;DHT22;2265;48.794;9.520;2023-07-13T00:58:49;21.30;98.00
4505;DHT22;2265;48.794;9.520;2023-07-13T01:01:17;21.40;98.00
4505;DHT22;2265;48.794;9.520;2023-07-13T01:03:45;21.40;98.00
4505;DHT22;2265;48.794;9.520;2023-07-13T01:06:14;21.30;98.00
4505;DHT22;2265;48.794;9.520;2023-07-13T01:08:43;21.30;98.00
4505;DHT22;2265;48.794;9.520;2023-07-13T01:11:10;21.20;98.00
4505;DHT22;2265;48.794;9.520;2023-07-13T01:13:40;21.20;98.00
4505;DHT22;2265;48.794;9.520;2023-07-13T01:16:24;21.30;98.00
4505;DHT22;2265;48.794;9.520;2023-07-13T01:18:52;21.40;98.00
4505;DHT22;2265;48.794;9.520;2023-07-13T01:21:20;21.40;98.00
4505;DHT22;2265;48.794;9.520;2023-07-13T01:23:47;21.20;98.00
4505;DHT22;2265;48.794;9.520;2023-07-13T01:26:14;21.20;98.00
4505;DHT22;2265;48.794;9.520;2023-07-13T01:28:42;21.00;98.00
4505;DHT22;2265;48.794;9.520;2023-07-13T01:31:09;20.90;98.00
4505;DHT22;2265;48.794;9.520;2023-07-13T01:33:37;20.90;98.00
4505;DHT22;2265;48.794;9.520;2023-07-13T01:36:05;21.00;98.00
4505;DHT22;2265;48.794;9.520;2023-07-13T01:38:35;21.00;98.00
4505;DHT22;2265;48.794;9.520;2023-07-13T01:41:02;20.90;98.00
4505;DHT22;2265;48.794;9.520;2023-07-13T01:43:30;20.90;98.00
4505;DHT22;2265;48.794;9.520;2023-07-13T01:45:57;21.00;98.00
4505;DHT22;2265;48.794;9.520;2023-07-13T01:48:24;20.80;98.00
4505;DHT22;2265;48.794;9.520;2023-07-13T01:50:52;20.70;98.00
4505;DHT22;2265;48.794;9.520;2023-07-13T01:53:19;20.60;98.00
4505;DHT22;2265;48.794;9.520;2023-07-13T01:55:47;20.40;98.00
4505;DHT22;2265;48.794;9.520;2023-07-13T01:58:16;20.30;98.00
4505;DHT22;2265;48.794;9.520;2023-07-13T02:00:44;20.40;98.00
4505;DHT22;2265;48.794;9.520;2023-07-13T02:03:11;20.40;98.00
4505;DHT22;2265;48.794;9.520;2023-07-13T02:05:43;20.40;98.00
4505;DHT22;2265;48.794;9.520;2023-07-13T02:08:10;20.40;98.00
4505;DHT22;2265;48.794;9.520;2023-07-13T02:14:02;20.30;98.00
4505;DHT22;2265;48.794;9.520;2023-07-13T02:16:32;20.20;98.00
4505;DHT22;2265;48.794;9.520;2023-07-13T02:19:02;20.20;98.00
4505;DHT22;2265;48.794;9.520;2023-07-13T02:21:29;20.20;98.00
4505;DHT22;2265;48.794;9.520;2023-07-13T02:23:56;20.20;98.00
4505;DHT22;2265;48.794;9.520;2023-07-13T02:26:23;20.10;98.00
4505;DHT22;2265;48.794;9.520;2023-07-13T02:28:50;20.00;98.00
4505;DHT22;2265;48.794;9.520;2023-07-13T02:31:19;20.00;98.00
4505;DHT22;2265;48.794;9.520;2023-07-13T02:33:46;19.90;98.00
4505;DHT22;2265;48.794;9.520;2023-07-13T02:36:14;19.80;98.00
4505;DHT22;2265;48.794;9.520;2023-07-13T02:38:42;19.80;98.00
4505;DHT22;2265;48.794;9.520;2023-07-13T02:41:09;19.70;98.00
4505;DHT22;2265;48.794;9.520;2023-07-13T02:43:37;19.70;98.00
4505;DHT22;2265;48.794;9.520;2023-07-13T02:46:04;19.50;98.00
4505;DHT22;2265;48.794;9.520;2023-07-13T02:48:35;19.50;98.00
4505;DHT22;2265;48.794;9.520;2023-07-13T02:51:03;19.50;98.00
4505;DHT22;2265;48.794;9.520;2023-07-13T02:53:30;19.40;98.00
4505;DHT22;2265;48.794;9.520;2023-07-13T02:55:57;19.40;98.00
4505;DHT22;2265;48.794;9.520;2023-07-13T02:58:25;19.50;98.00
4505;DHT22;2265;48.794;9.520;2023-07-13T03:00:52;19.60;98.00
4505;DHT22;2265;48.794;9.520;2023-07-13T03:03:19;19.80;98.00
4505;DHT22;2265;48.794;9.520;2023-07-13T03:05:47;19.80;98.00
4505;DHT22;2265;48.794;9.520;2023-07-13T03:08:16;19.50;98.00
4505;DHT22;2265;48.794;9.520;2023-07-13T03:10:43;19.30;98.00
4505;DHT22;2265;48.794;9.520;2023-07-13T03:13:10;19.20;98.00
4505;DHT22;2265;48.794;9.520;2023-07-13T03:15:38;19.20;98.00
4505;DHT22;2265;48.794;9.520;2023-07-13T03:18:05;19.20;98.00
4505;DHT22;2265;48.794;9.520;2023-07-13T03:20:35;19.00;98.00
4505;DHT22;2265;48.794;9.520;2023-07-13T03:23:04;18.90;98.00
4505;DHT22;2265;48.794;9.520;2023-07-13T03:25:31;18.70;98.00
4505;DHT22;2265;48.794;9.520;2023-07-13T03:27:58;18.60;98.00
4505;DHT22;2265;48.794;9.520;2023-07-13T03:30:26;18.40;98.00
4505;DHT22;2265;48.794;9.520;2023-07-13T03:32:53;18.30;98.00
4505;DHT22;2265;48.794;9.520;2023-07-13T03:35:20;18.20;98.00
4505;DHT22;2265;48.794;9.520;2023-07-13T03:37:50;18.20;98.00
4505;DHT22;2265;48.794;9.520;2023-07-13T03:40:19;18.20;98.00
4505;DHT22;2265;48.794;9.520;2023-07-13T03:42:46;18.30;98.00
4505;DHT22;2265;48.794;9.520;2023-07-13T03:45:13;18.20;98.00
4505;DHT22;2265;48.794;9.520;2023-07-13T03:47:40;18.20;98.00
4505;DHT22;2265;48.794;9.520;2023-07-13T03:50:08;18.30;98.00
4505;DHT22;2265;48.794;9.520;2023-07-13T03:52:36;18.40;98.00
4505;DHT22;2265;48.794;9.520;2023-07-13T03:55:03;18.30;98.00
4505;DHT22;2265;48.794;9.520;2023-07-13T03:57:32;18.30;98.00
4505;DHT22;2265;48.794;9.520;2023-07-13T04:00:00;18.50;98.00
4505;DHT22;2265;48.794;9.520;2023-07-13T04:02:28;18.40;98.00
4505;DHT22;2265;48.794;9.520;2023-07-13T04:04:55;18.40;98.00
4505;DHT22;2265;48.794;9.520;2023-07-13T04:07:22;18.50;98.00
4505;DHT22;2265;48.794;9.520;2023-07-13T04:09:50;18.60;98.00
4505;DHT22;2265;48.794;9.520;2023-07-13T04:12:17;18.70;98.00
4505;DHT22;2265;48.794;9.520;2023-07-13T04:14:46;19.00;98.00
4505;DHT22;2265;48.794;9.520;2023-07-13T04:17:16;18.90;98.00
4505;DHT22;2265;48.794;9.520;2023-07-13T04:19:44;18.90;98.00
4505;DHT22;2265;48.794;9.520;2023-07-13T04:22:11;19.00;98.00
4505;DHT22;2265;48.794;9.520;2023-07-13T04:24:38;19.10;98.00
4505;DHT22;2265;48.794;9.520;2023-07-13T04:27:05;19.10;98.00
4505;DHT22;2265;48.794;9.520;2023-07-13T04:29:32;19.20;98.00
4505;DHT22;2265;48.794;9.520;2023-07-13T04:32:01;19.10;98.00
4505;DHT22;2265;48.794;9.520;2023-07-13T04:34:28;19.00;98.00
4505;DHT22;2265;48.794;9.520;2023-07-13T04:37:00;19.00;98.00
4505;DHT22;2265;48.794;9.520;2023-07-13T04:39:27;18.90;98.00
4505;DHT22;2265;48.794;9.520;2023-07-13T04:41:55;18.90;98.00
4505;DHT22;2265;48.794;9.520;2023-07-13T04:44:22;18.80;98.00
4505;DHT22;2265;48.794;9.520;2023-07-13T04:46:49;18.80;98.00
4505;DHT22;2265;48.794;9.520;2023-07-13T04:49:17;18.80;98.00
4505;DHT22;2265;48.794;9.520;2023-07-13T04:51:44;18.80;98.00
4505;DHT22;2265;48.794;9.520;2023-07-13T04:54:11;18.80;98.00
4505;DHT22;2265;48.794;9.520;2023-07-13T04:56:39;19.20;98.00
4505;DHT22;2265;48.794;9.520;2023-07-13T04:59:06;19.40;98.00
4505;DHT22;2265;48.794;9.520;2023-07-13T05:01:33;19.30;98.00
4505;DHT22;2265;48.794;9.520;2023-07-13T05:04:02;19.20;98.00
4505;DHT22;2265;48.794;9.520;2023-07-13T05:06:30;19.20;98.00
4505;DHT22;2265;48.794;9.520;2023-07-13T05:08:57;19.10;98.00
4505;DHT22;2265;48.794;9.520;2023-07-13T05:11:25;19.20;98.00
4505;DHT22;2265;48.794;9.520;2023-07-13T05:13:52;19.20;98.00
4505;DHT22;2265;48.794;9.520;2023-07-13T05:16:19;19.20;98.00
4505;DHT22;2265;48.794;9.520;2023-07-13T05:18:46;19.30;98.00
4505;DHT22;2265;48.794;9.520;2023-07-13T05:21:13;19.30;98.00
4505;DHT22;2265;48.794;9.520;2023-07-13T05:23:42;19.30;98.00
4505;DHT22;2265;48.794;9.520;2023-07-13T05:26:09;19.40;98.00
4505;DHT22;2265;48.794;9.520;2023-07-13T05:28:37;19.50;98.00
4505;DHT22;2265;48.794;9.520;2023-07-13T05:31:04;19.50;98.00
4505;DHT22;2265;48.794;9.520;2023-07-13T05:33:31;19.60;98.00
4505;DHT22;2265;48.794;9.520;2023-07-13T05:35:59;19.60;98.00
4505;DHT22;2265;48.794;9.520;2023-07-13T05:38:29;19.60;98.00
4505;DHT22;2265;48.794;9.520;2023-07-13T05:40:57;19.60;98.00
4505;DHT22;2265;48.794;9.520;2023-07-13T05:43:25;19.60;98.00
4505;DHT22;2265;48.794;9.520;2023-07-13T05:45:53;19.80;98.00
4505;DHT22;2265;48.794;9.520;2023-07-13T05:48:21;19.90;98.00
4505;DHT22;2265;48.794;9.520;2023-07-13T05:50:48;20.10;98.00
4505;DHT22;2265;48.794;9.520;2023-07-13T05:53:16;20.00;98.00
4505;DHT22;2265;48.794;9.520;2023-07-13T05:55:44;20.00;98.00
4505;DHT22;2265;48.794;9.520;2023-07-13T05:58:14;20.00;98.00
4505;DHT22;2265;48.794;9.520;2023-07-13T06:00:41;20.00;98.00
4505;DHT22;2265;48.794;9.520;2023-07-13T06:03:11;19.80;98.00
4505;DHT22;2265;48.794;9.520;2023-07-13T06:05:39;19.90;98.00
4505;DHT22;2265;48.794;9.520;2023-07-13T06:08:07;20.10;98.00
4505;DHT22;2265;48.794;9.520;2023-07-13T06:10:35;20.00;98.00
4505;DHT22;2265;48.794;9.520;2023-07-13T06:13:02;20.00;98.00
4505;DHT22;2265;48.794;9.520;2023-07-13T06:15:31;20.10;98.00
4505;DHT22;2265;48.794;9.520;2023-07-13T06:17:58;20.10;98.00
4505;DHT22;2265;48.794;9.520;2023-07-13T06:20:25;20.00;98.00
4505;DHT22;2265;48.794;9.520;2023-07-13T06:22:53;20.00;98.00
4505;DHT22;2265;48.794;9.520;2023-07-13T06:25:22;20.10;98.00
4505;DHT22;2265;48.794;9.520;2023-07-13T06:27:49;20.10;98.00
4505;DHT22;2265;48.794;9.520;2023-07-13T06:30:16;20.10;98.00
4505;DHT22;2265;48.794;9.520;2023-07-13T06:32:46;20.20;98.00
4505;DHT22;2265;48.794;9.520;2023-07-13T06:35:13;20.60;98.00
4505;DHT22;2265;48.794;9.520;2023-07-13T06:37:40;21.30;98.00
4505;DHT22;2265;48.794;9.520;2023-07-13T06:40:08;21.90;98.00
4505;DHT22;2265;48.794;9.520;2023-07-13T06:42:36;22.40;98.00
4505;DHT22;2265;48.794;9.520;2023-07-13T06:45:05;22.80;98.00
4505;DHT22;2265;48.794;9.520;2023-07-13T06:47:32;22.90;98.00
4505;DHT22;2265;48.794;9.520;2023-07-13T06:50:00;23.10;98.00
4505;DHT22;2265;48.794;9.520;2023-07-13T06:52:27;23.20;98.00
4505;DHT22;2265;48.794;9.520;2023-07-13T06:54:55;23.20;97.80
4505;DHT22;2265;48.794;9.520;2023-07-13T06:57:22;23.10;97.90
4505;DHT22;2265;48.794;9.520;2023-07-13T06:59:50;22.90;96.00
4505;DHT22;2265;48.794;9.520;2023-07-13T07:02:17;22.70;97.50
4505;DHT22;2265;48.794;9.520;2023-07-13T07:04:45;22.80;98.00
4505;DHT22;2265;48.794;9.520;2023-07-13T07:07:14;22.80;94.10
4505;DHT22;2265;48.794;9.520;2023-07-13T07:09:41;22.50;95.10
4505;DHT22;2265;48.794;9.520;2023-07-13T07:12:09;22.50;97.40
4505;DHT22;2265;48.794;9.520;2023-07-13T07:14:36;22.60;95.90
4505;DHT22;2265;48.794;9.520;2023-07-13T07:17:03;22.70;97.10
4505;DHT22;2265;48.794;9.520;2023-07-13T07:19:31;22.90;97.30
4505;DHT22;2265;48.794;9.520;2023-07-13T07:21:58;23.20;96.00
4505;DHT22;2265;48.794;9.520;2023-07-13T07:24:26;23.40;95.60
4505;DHT22;2265;48.794;9.520;2023-07-13T07:26:53;23.50;94.70
4505;DHT22;2265;48.794;9.520;2023-07-13T07:29:22;23.70;93.40
4505;DHT22;2265;48.794;9.520;2023-07-13T07:31:52;23.60;93.20
4505;DHT22;2265;48.794;9.520;2023-07-13T07:34:19;23.60;93.30
4505;DHT22;2265;48.794;9.520;2023-07-13T07:36:46;23.70;92.30
4505;DHT22;2265;48.794;9.520;2023-07-13T07:39:13;23.50;90.00
4505;DHT22;2265;48.794;9.520;2023-07-13T07:41:43;23.20;91.10
4505;DHT22;2265;48.794;9.520;2023-07-13T07:44:12;23.40;91.70
4505;DHT22;2265;48.794;9.520;2023-07-13T07:46:39;23.50;92.40
4505;DHT22;2265;48.794;9.520;2023-07-13T07:49:06;23.70;91.00
4505;DHT22;2265;48.794;9.520;2023-07-13T07:51:34;23.50;91.60
4505;DHT22;2265;48.794;9.520;2023-07-13T07:54:01;23.60;91.50
4505;DHT22;2265;48.794;9.520;2023-07-13T07:56:28;23.40;90.90
4505;DHT22;2265;48.794;9.520;2023-07-13T07:58:56;23.20;91.30
4505;DHT22;2265;48.794;9.520;2023-07-13T08:01:24;23.40;91.90
4505;DHT22;2265;48.794;9.520;2023-07-13T08:03:51;23.70;92.10
4505;DHT22;2265;48.794;9.520;2023-07-13T08:06:18;23.70;89.10
4505;DHT22;2265;48.794;9.520;2023-07-13T08:08:45;23.60;90.30
4505;DHT22;2265;48.794;9.520;2023-07-13T08:11:12;23.70;89.10
4505;DHT22;2265;48.794;9.520;2023-07-13T08:13:40;23.60;88.20
4505;DHT22;2265;48.794;9.520;2023-07-13T08:16:09;23.70;90.60
4505;DHT22;2265;48.794;9.520;2023-07-13T08:18:37;23.80;90.90
4505;DHT22;2265;48.794;9.520;2023-07-13T08:21:05;23.90;89.20
4505;DHT22;2265;48.794;9.520;2023-07-13T08:23:32;24.10;86.60
4505;DHT22;2265;48.794;9.520;2023-07-13T08:26:00;24.00;86.30
4505;DHT22;2265;48.794;9.520;2023-07-13T08:28:28;24.10;87.30
4505;DHT22;2265;48.794;9.520;2023-07-13T08:30:55;24.20;86.30
4505;DHT22;2265;48.794;9.520;2023-07-13T08:33:23;24.00;85.60
4505;DHT22;2265;48.794;9.520;2023-07-13T08:35:51;24.00;85.20
4505;DHT22;2265;48.794;9.520;2023-07-13T08:38:18;24.00;86.20
4505;DHT22;2265;48.794;9.520;2023-07-13T08:40:50;24.00;84.20
4505;DHT22;2265;48.794;9.520;2023-07-13T08:43:23;24.00;83.30
4505;DHT22;2265;48.794;9.520;2023-07-13T08:45:57;24.00;84.30
4505;DHT22;2265;48.794;9.520;2023-07-13T08:48:30;24.00;83.80
4505;DHT22;2265;48.794;9.520;2023-07-13T08:51:04;24.10;83.90
4505;DHT22;2265;48.794;9.520;2023-07-13T08:53:38;24.20;83.20
4505;DHT22;2265;48.794;9.520;2023-07-13T08:56:13;24.40;83.10
4505;DHT22;2265;48.794;9.520;2023-07-13T08:58:41;24.30;82.00
4505;DHT22;2265;48.794;9.520;2023-07-13T09:01:16;24.30;82.10
4505;DHT22;2265;48.794;9.520;2023-07-13T09:03:55;24.30;81.00
4505;DHT22;2265;48.794;9.520;2023-07-13T09:06:34;24.40;82.00
4505;DHT22;2265;48.794;9.520;2023-07-13T09:09:06;24.40;81.10
4505;DHT22;2265;48.794;9.520;2023-07-13T09:11:45;24.60;82.20
4505;DHT22;2265;48.794;9.520;2023-07-13T09:14:33;24.50;81.50
4505;DHT22;2265;48.794;9.520;2023-07-13T09:17:03;24.70;81.60
4505;DHT22;2265;48.794;9.520;2023-07-13T09:19:33;24.90;80.60
4505;DHT22;2265;48.794;9.520;2023-07-13T09:22:03;25.00;79.60
4505;DHT22;2265;48.794;9.520;2023-07-13T09:24:37;25.00;80.60
4505;DHT22;2265;48.794;9.520;2023-07-13T09:27:14;25.00;79.80
4505;DHT22;2265;48.794;9.520;2023-07-13T09:29:47;25.00;80.60
4505;DHT22;2265;48.794;9.520;2023-07-13T09:32:18;25.00;78.90
4505;DHT22;2265;48.794;9.520;2023-07-13T09:34:53;24.90;79.00
4505;DHT22;2265;48.794;9.520;2023-07-13T09:37:22;25.00;80.40
4505;DHT22;2265;48.794;9.520;2023-07-13T09:39:56;25.20;80.00
4505;DHT22;2265;48.794;9.520;2023-07-13T09:42:25;25.30;79.60
4505;DHT22;2265;48.794;9.520;2023-07-13T09:44:55;25.50;78.50
4505;DHT22;2265;48.794;9.520;2023-07-13T09:47:28;25.70;78.10
4505;DHT22;2265;48.794;9.520;2023-07-13T09:49:58;25.70;78.50
4505;DHT22;2265;48.794;9.520;2023-07-13T09:52:26;25.60;79.10
4505;DHT22;2265;48.794;9.520;2023-07-13T09:54:54;25.80;79.70
4505;DHT22;2265;48.794;9.520;2023-07-13T09:57:26;25.90;78.20
4505;DHT22;2265;48.794;9.520;2023-07-13T09:59:55;25.90;78.90
4505;DHT22;2265;48.794;9.520;2023-07-13T10:02:27;25.90;78.20
4505;DHT22;2265;48.794;9.520;2023-07-13T10:05:01;26.00;78.00
4505;DHT22;2265;48.794;9.520;2023-07-13T10:07:29;26.00;76.60
4505;DHT22;2265;48.794;9.520;2023-07-13T10:09:58;26.20;77.70
4505;DHT22;2265;48.794;9.520;2023-07-13T10:12:28;26.40;77.20
4505;DHT22;2265;48.794;9.520;2023-07-13T10:14:58;26.30;75.70
4505;DHT22;2265;48.794;9.520;2023-07-13T10:17:29;26.40;75.70
4505;DHT22;2265;48.794;9.520;2023-07-13T10:20:00;26.40;77.10
4505;DHT22;2265;48.794;9.520;2023-07-13T10:22:36;26.70;76.90
4505;DHT22;2265;48.794;9.520;2023-07-13T10:25:15;26.80;77.00
4505;DHT22;2265;48.794;9.520;2023-07-13T10:27:45;26.80;75.80
4505;DHT22;2265;48.794;9.520;2023-07-13T10:30:17;26.80;75.10
4505;DHT22;2265;48.794;9.520;2023-07-13T10:32:47;26.80;76.10
4505;DHT22;2265;48.794;9.520;2023-07-13T10:35:21;26.80;75.00
4505;DHT22;2265;48.794;9.520;2023-07-13T10:37:51;26.70;75.60
4505;DHT22;2265;48.794;9.520;2023-07-13T10:40:23;27.00;77.30
4505;DHT22;2265;48.794;9.520;2023-07-13T10:42:53;27.20;75.80
4505;DHT22;2265;48.794;9.520;2023-07-13T10:45:22;27.20;74.00
4505;DHT22;2265;48.794;9.520;2023-07-13T10:47:51;27.20;74.20
4505;DHT22;2265;48.794;9.520;2023-07-13T10:50:28;27.30;74.10
4505;DHT22;2265;48.794;9.520;2023-07-13T10:53:02;27.50;74.50
4505;DHT22;2265;48.794;9.520;2023-07-13T10:55:41;27.50;75.10
4505;DHT22;2265;48.794;9.520;2023-07-13T10:58:20;27.20;75.20
4505;DHT22;2265;48.794;9.520;2023-07-13T11:00:49;26.90;75.20
4505;DHT22;2265;48.794;9.520;2023-07-13T11:03:20;26.70;75.00
4505;DHT22;2265;48.794;9.520;2023-07-13T11:06:06;26.80;75.50
4505;DHT22;2265;48.794;9.520;2023-07-13T11:08:36;27.00;74.60
4505;DHT22;2265;48.794;9.520;2023-07-13T11:11:32;27.00;75.50
4505;DHT22;2265;48.794;9.520;2023-07-13T11:14:01;27.20;75.30
4505;DHT22;2265;48.794;9.520;2023-07-13T11:16:42;27.50;74.20
4505;DHT22;2265;48.794;9.520;2023-07-13T11:19:41;27.40;75.60
4505;DHT22;2265;48.794;9.520;2023-07-13T11:22:23;27.70;73.70
4505;DHT22;2265;48.794;9.520;2023-07-13T11:24:58;27.90;74.80
4505;DHT22;2265;48.794;9.520;2023-07-13T11:27:40;28.10;73.30
4505;DHT22;2265;48.794;9.520;2023-07-13T11:30:23;28.20;73.40
4505;DHT22;2265;48.794;9.520;2023-07-13T11:33:02;28.10;73.30
4505;DHT22;2265;48.794;9.520;2023-07-13T11:35:36;28.40;74.80
4505;DHT22;2265;48.794;9.520;2023-07-13T11:38:16;28.70;72.80
4505;DHT22;2265;48.794;9.520;2023-07-13T11:40:44;29.00;72.90
4505;DHT22;2265;48.794;9.520;2023-07-13T11:43:14;29.20;70.70
4505;DHT22;2265;48.794;9.520;2023-07-13T11:45:42;29.20;71.70
4505;DHT22;2265;48.794;9.520;2023-07-13T11:48:28;29.10;70.50
4505;DHT22;2265;48.794;9.520;2023-07-13T11:50:59;29.10;70.50
4505;DHT22;2265;48.794;9.520;2023-07-13T11:53:30;29.40;70.70
4505;DHT22;2265;48.794;9.520;2023-07-13T11:56:01;29.50;70.40
4505;DHT22;2265;48.794;9.520;2023-07-13T11:58:28;29.30;70.20
4505;DHT22;2265;48.794;9.520;2023-07-13T12:00:58;28.90;71.00
4505;DHT22;2265;48.794;9.520;2023-07-13T12:03:27;29.00;71.70
4505;DHT22;2265;48.794;9.520;2023-07-13T12:05:56;29.00;72.00
4505;DHT22;2265;48.794;9.520;2023-07-13T12:08:24;29.10;70.30
4505;DHT22;2265;48.794;9.520;2023-07-13T12:11:05;28.50;70.00
4505;DHT22;2265;48.794;9.520;2023-07-13T12:13:37;28.40;70.80
4505;DHT22;2265;48.794;9.520;2023-07-13T12:16:12;28.90;72.50
4505;DHT22;2265;48.794;9.520;2023-07-13T12:18:42;29.40;69.70
4505;DHT22;2265;48.794;9.520;2023-07-13T12:21:14;29.30;70.50
4505;DHT22;2265;48.794;9.520;2023-07-13T12:23:48;28.80;70.30
4505;DHT22;2265;48.794;9.520;2023-07-13T12:26:18;28.80;71.30
4505;DHT22;2265;48.794;9.520;2023-07-13T12:28:49;28.60;71.50
4505;DHT22;2265;48.794;9.520;2023-07-13T12:31:30;28.40;72.40
4505;DHT22;2265;48.794;9.520;2023-07-13T12:34:00;28.70;73.10
4505;DHT22;2265;48.794;9.520;2023-07-13T12:36:33;29.20;70.60
4505;DHT22;2265;48.794;9.520;2023-07-13T12:39:13;29.80;70.40
4505;DHT22;2265;48.794;9.520;2023-07-13T12:41:43;30.30;70.60
4505;DHT22;2265;48.794;9.520;2023-07-13T12:44:15;30.70;67.90
4505;DHT22;2265;48.794;9.520;2023-07-13T12:46:55;30.70;67.20
4505;DHT22;2265;48.794;9.520;2023-07-13T12:49:26;30.70;67.50
4505;DHT22;2265;48.794;9.520;2023-07-13T12:51:58;31.00;67.70
4505;DHT22;2265;48.794;9.520;2023-07-13T12:54:27;31.10;67.10
4505;DHT22;2265;48.794;9.520;2023-07-13T12:56:57;31.00;65.90
4505;DHT22;2265;48.794;9.520;2023-07-13T12:59:29;31.10;68.00
4505;DHT22;2265;48.794;9.520;2023-07-13T13:01:59;31.50;67.20
4505;DHT22;2265;48.794;9.520;2023-07-13T13:04:28;31.70;66.30
4505;DHT22;2265;48.794;9.520;2023-07-13T13:07:03;32.00;66.00
4505;DHT22;2265;48.794;9.520;2023-07-13T13:09:30;32.10;65.80
4505;DHT22;2265;48.794;9.520;2023-07-13T13:11:59;32.20;64.50
4505;DHT22;2265;48.794;9.520;2023-07-13T13:14:26;32.50;66.20
4505;DHT22;2265;48.794;9.520;2023-07-13T13:16:53;32.60;65.50
4505;DHT22;2265;48.794;9.520;2023-07-13T13:19:24;32.70;64.60
4505;DHT22;2265;48.794;9.520;2023-07-13T13:21:52;33.00;64.10
4505;DHT22;2265;48.794;9.520;2023-07-13T13:24:22;32.70;63.00
4505;DHT22;2265;48.794;9.520;2023-07-13T13:26:50;32.10;64.20
4505;DHT22;2265;48.794;9.520;2023-07-13T13:29:21;31.40;64.90
4505;DHT22;2265;48.794;9.520;2023-07-13T13:31:50;31.00;65.10
4505;DHT22;2265;48.794;9.520;2023-07-13T13:34:19;31.20;67.40
4505;DHT22;2265;48.794;9.520;2023-07-13T13:36:48;31.60;66.40
4505;DHT22;2265;48.794;9.520;2023-07-13T13:39:19;31.80;64.40
4505;DHT22;2265;48.794;9.520;2023-07-13T13:41:48;32.00;63.80
4505;DHT22;2265;48.794;9.520;2023-07-13T13:44:16;31.80;64.30
4505;DHT22;2265;48.794;9.520;2023-07-13T13:46:45;31.80;63.90
4505;DHT22;2265;48.794;9.520;2023-07-13T13:49:17;31.80;63.10
4505;DHT22;2265;48.794;9.520;2023-07-13T13:51:45;31.70;63.20
4505;DHT22;2265;48.794;9.520;2023-07-13T13:54:14;31.60;63.40
4505;DHT22;2265;48.794;9.520;2023-07-13T13:56:42;31.50;64.20
4505;DHT22;2265;48.794;9.520;2023-07-13T13:59:10;31.60;64.10
4505;DHT22;2265;48.794;9.520;2023-07-13T14:01:37;32.00;63.50
4505;DHT22;2265;48.794;9.520;2023-07-13T14:04:14;32.10;62.10
4505;DHT22;2265;48.794;9.520;2023-07-13T14:06:43;32.20;63.20
4505;DHT22;2265;48.794;9.520;2023-07-13T14:09:14;32.60;61.90
4505;DHT22;2265;48.794;9.520;2023-07-13T14:11:44;32.20;61.80
4505;DHT22;2265;48.794;9.520;2023-07-13T14:14:14;32.10;63.90
4505;DHT22;2265;48.794;9.520;2023-07-13T14:16:42;31.80;63.50
4505;DHT22;2265;48.794;9.520;2023-07-13T14:19:12;31.40;63.80
4505;DHT22;2265;48.794;9.520;2023-07-13T14:21:40;31.70;63.20
4505;DHT22;2265;48.794;9.520;2023-07-13T14:24:07;31.50;63.40
4505;DHT22;2265;48.794;9.520;2023-07-13T14:26:38;30.90;63.50
4505;DHT22;2265;48.794;9.520;2023-07-13T14:29:12;30.40;64.30
4505;DHT22;2265;48.794;9.520;2023-07-13T14:31:40;30.20;65.10
4505;DHT22;2265;48.794;9.520;2023-07-13T14:34:08;29.70;65.30
4505;DHT22;2265;48.794;9.520;2023-07-13T14:36:40;29.50;67.60
4505;DHT22;2265;48.794;9.520;2023-07-13T14:39:12;29.60;66.80
4505;DHT22;2265;48.794;9.520;2023-07-13T14:41:39;30.10;66.40
4505;DHT22;2265;48.794;9.520;2023-07-13T14:44:13;30.30;65.60
4505;DHT22;2265;48.794;9.520;2023-07-13T14:46:41;30.80;64.40
4505;DHT22;2265;48.794;9.520;2023-07-13T14:49:23;31.20;63.40
4505;DHT22;2265;48.794;9.520;2023-07-13T14:51:52;31.30;63.10
4505;DHT22;2265;48.794;9.520;2023-07-13T14:54:21;30.70;63.20
4505;DHT22;2265;48.794;9.520;2023-07-13T14:56:48;30.10;64.10
4505;DHT22;2265;48.794;9.520;2023-07-13T14:59:15;30.10;64.20
4505;DHT22;2265;48.794;9.520;2023-07-13T15:01:44;30.40;63.30
4505;DHT22;2265;48.794;9.520;2023-07-13T15:04:12;30.80;64.00
4505;DHT22;2265;48.794;9.520;2023-07-13T15:06:55;31.30;62.10
4505;DHT22;2265;48.794;9.520;2023-07-13T15:09:23;31.50;62.90
4505;DHT22;2265;48.794;9.520;2023-07-13T15:11:54;31.80;63.50
4505;DHT22;2265;48.794;9.520;2023-07-13T15:14:24;31.90;62.10
4505;DHT22;2265;48.794;9.520;2023-07-13T15:16:54;31.90;62.80
4505;DHT22;2265;48.794;9.520;2023-07-13T15:19:22;31.90;62.50
4505;DHT22;2265;48.794;9.520;2023-07-13T15:21:51;32.10;61.80
4505;DHT22;2265;48.794;9.520;2023-07-13T15:24:21;32.40;62.00
4505;DHT22;2265;48.794;9.520;2023-07-13T15:26:48;32.40;60.70
4505;DHT22;2265;48.794;9.520;2023-07-13T15:29:16;32.60;60.90
4505;DHT22;2265;48.794;9.520;2023-07-13T15:31:43;32.60;60.90
4505;DHT22;2265;48.794;9.520;2023-07-13T15:34:13;32.50;61.50
4505;DHT22;2265;48.794;9.520;2023-07-13T15:36:41;32.10;60.10
4505;DHT22;2265;48.794;9.520;2023-07-13T15:39:13;31.20;61.20
4505;DHT22;2265;48.794;9.520;2023-07-13T15:41:43;30.40;63.00
4505;DHT22;2265;48.794;9.520;2023-07-13T15:44:24;30.10;64.70
4505;DHT22;2265;48.794;9.520;2023-07-13T15:46:52;29.80;64.40
4505;DHT22;2265;48.794;9.520;2023-07-13T15:49:19;29.50;65.50
4505;DHT22;2265;48.794;9.520;2023-07-13T15:51:47;29.50;66.10
4505;DHT22;2265;48.794;9.520;2023-07-13T15:54:16;29.90;66.20
4505;DHT22;2265;48.794;9.520;2023-07-13T15:56:49;30.40;65.30
4505;DHT22;2265;48.794;9.520;2023-07-13T15:59:18;30.30;65.00
4505;DHT22;2265;48.794;9.520;2023-07-13T16:01:45;30.50;64.40
4505;DHT22;2265;48.794;9.520;2023-07-13T16:04:15;30.80;65.10
4505;DHT22;2265;48.794;9.520;2023-07-13T16:06:43;30.60;63.60
4505;DHT22;2265;48.794;9.520;2023-07-13T16:09:16;30.10;64.50
4505;DHT22;2265;48.794;9.520;2023-07-13T16:11:45;29.70;65.30
4505;DHT22;2265;48.794;9.520;2023-07-13T16:14:14;29.60;66.40
4505;DHT22;2265;48.794;9.520;2023-07-13T16:16:42;29.60;66.70
4505;DHT22;2265;48.794;9.520;2023-07-13T16:19:10;29.60;67.00
4505;DHT22;2265;48.794;9.520;2023-07-13T16:21:42;29.50;66.40